McCarran International Airport
KLAS : now visible

Airfield :











YOU CAN JOIN US ON...

 
LOGIN :

Register | Disclaimer

   EN    FR    IT 

 









Legend :    VFR   Marginal VFR   IFR   Intensive IFR   Very Intensive IFR
Visi :
Ceiling :
>= 8 km
>= 3000ft
5 to 8 km
1000 to 3000 ft
1500m to 5 km
500 to 1000 ft
800 to 1500m
200 to 500 ft
< 800m
< 200 ft
Symbols :   Thunderstorms  Fog  Heavy snow  Heavy precipitations  Wind > 20 kt






- Airport Elevation : 2181 ft
- IATA code : LAS


KLAS - McCarran International

CURRENT METAR :
  • 282056Z 03004KT 10SM BKN250 14/M04 A2972 RMK AO2 SLP057 T01391044 57034

EXPIRED METARs :
  • 281956Z 03004KT 10SM BKN250 12/M04 A2974 RMK AO2 SLP068 T01221039
  • 281856Z 03005KT 10SM FEW180 BKN250 11/M04 A2979 RMK AO2 SLP086 T01111039

TAF KLAS
Valid from the 28 at 21:00 until the 30 at 00:00 UTC


282052Z 2821/2924 VRB05KT P6SM SCT250
FM282300 21012G24KT P6SM SCT250
FM290200 25008KT P6SM SCT250
FM290900 32010KT P6SM FEW250
FM291400 03008KT P6SM SKC
FM292000 06006KT P6SM SKC
KZLA FIR / North America



MET'MAP, your aeronautical weather chart ! - Copyright ORBIFLY December 2007 - Disclaimer

ORBIFLY MET'MAP TEAM :

Programming & Development : Alexandra Zaïnal
Original concept : Baudouin d'Aumeries
Technical & hardware support : Manuel Goepfert
Assistance : Marc-Olivier Méhu




SOURCES & CREDITS :

   NOAA       Earth
Advisory